Time;durP1;ratioP1;P1;durP2;ratioP2;P2;SDS_P1;SDS_P2;PMS_P1;PMS_P2;Temp;Humidity;BMP_temperature;BMP_pressure;BME280_temperature;BME280_humidity;BME280_pressure;Samples;Min_cycle;Max_cycle;Signal;HPM_P1;HPM_P2
2023/10/22 00:00:54;;;;;;;3.45;1.85;;;10.00;99.90;;;;;;5032149;28;20021;-56
2023/10/22 00:03:20;;;;;;;2.83;1.40;;;10.00;99.90;;;;;;5032586;28;20390;-58
2023/10/22 00:05:46;;;;;;;4.75;1.52;;;9.90;99.90;;;;;;5032228;28;20028;-57
2023/10/22 00:08:11;;;;;;;2.13;1.20;;;9.90;99.90;;;;;;5032230;28;20029;-58
2023/10/22 00:10:37;;;;;;;2.78;1.40;;;9.80;99.90;;;;;;5032709;28;20057;-57
2023/10/22 00:13:03;;;;;;;2.65;1.58;;;9.80;99.90;;;;;;5031991;28;20103;-55
2023/10/22 00:15:28;;;;;;;3.58;1.75;;;9.80;99.90;;;;;;5031918;28;20029;-58
2023/10/22 00:17:54;;;;;;;3.13;1.60;;;9.80;99.90;;;;;;5032180;28;20408;-51
2023/10/22 00:20:19;;;;;;;2.85;1.63;;;9.70;99.90;;;;;;5032163;28;20029;-48
2023/10/22 00:22:45;;;;;;;3.83;1.73;;;9.70;99.90;;;;;;5031880;28;20103;-44
2023/10/22 00:25:11;;;;;;;2.47;1.60;;;9.70;99.90;;;;;;5031817;28;20023;-52
2023/10/22 00:27:37;;;;;;;5.63;2.05;;;9.70;99.90;;;;;;5032197;28;20112;-48
2023/10/22 00:30:03;;;;;;;3.13;1.50;;;9.70;99.90;;;;;;5030975;28;20044;-52
2023/10/22 00:32:28;;;;;;;4.10;1.63;;;9.70;99.90;;;;;;5031212;28;20077;-58
2023/10/22 00:34:54;;;;;;;2.90;1.48;;;9.70;99.90;;;;;;5031832;28;20823;-45
2023/10/22 00:37:20;;;;;;;1.77;1.23;;;9.70;99.90;;;;;;5031688;28;20021;-47
2023/10/22 00:39:45;;;;;;;2.05;1.20;;;9.80;99.90;;;;;;5031673;28;20104;-45
2023/10/22 00:42:11;;;;;;;3.55;1.67;;;9.80;99.90;;;;;;5031296;28;20020;-45
2023/10/22 00:44:37;;;;;;;3.72;1.73;;;9.80;99.90;;;;;;5031555;28;20040;-48
2023/10/22 00:47:05;;;;;;;3.45;1.85;;;9.90;99.90;;;;;;5031197;28;20017;-46
2023/10/22 00:49:31;;;;;;;4.18;1.83;;;9.90;99.90;;;;;;5031485;28;20496;-47
2023/10/22 00:51:57;;;;;;;2.70;1.40;;;9.80;99.90;;;;;;5031331;28;20465;-46
2023/10/22 00:54:25;;;;;;;3.03;1.52;;;9.80;99.90;;;;;;5031251;28;20546;-51
2023/10/22 00:56:53;;;;;;;2.65;1.60;;;9.80;99.90;;;;;;5031282;28;20026;-46
2023/10/22 00:59:19;;;;;;;4.32;1.65;;;9.80;99.90;;;;;;5017452;28;20083;-48
2023/10/22 01:01:44;;;;;;;3.92;1.88;;;9.80;99.90;;;;;;5031003;28;20065;-60
2023/10/22 01:04:11;;;;;;;2.20;1.33;;;9.90;99.90;;;;;;5031010;28;20053;-47
2023/10/22 01:06:38;;;;;;;3.67;1.40;;;9.90;99.90;;;;;;5031288;28;20037;-47
2023/10/22 01:09:05;;;;;;;2.40;1.40;;;9.80;99.90;;;;;;5031112;28;20025;-53
2023/10/22 01:11:32;;;;;;;5.20;1.70;;;9.90;99.90;;;;;;5030914;28;20036;-48
2023/10/22 01:13:58;;;;;;;9.75;1.67;;;10.10;99.90;;;;;;5031076;28;20045;-52
2023/10/22 01:16:24;;;;;;;3.17;1.55;;;10.00;99.90;;;;;;5030700;28;20031;-46
2023/10/22 01:18:49;;;;;;;2.80;1.50;;;9.90;99.90;;;;;;5031075;28;20492;-48
2023/10/22 01:21:15;;;;;;;4.43;1.55;;;9.90;99.90;;;;;;5030679;28;20025;-48
2023/10/22 01:23:41;;;;;;;2.75;1.30;;;9.90;99.90;;;;;;5030893;28;20028;-47
2023/10/22 01:26:07;;;;;;;2.42;1.38;;;9.70;99.90;;;;;;5030804;28;20823;-46
2023/10/22 01:28:36;;;;;;;3.25;1.20;;;9.80;99.90;;;;;;5030930;28;20025;-48
2023/10/22 01:31:10;;;;;;;3.25;1.70;;;9.80;99.90;;;;;;5030725;28;20083;-49
2023/10/22 01:33:36;;;;;;;4.28;2.10;;;9.80;99.90;;;;;;5030328;28;20049;-49
2023/10/22 01:36:02;;;;;;;5.15;2.28;;;9.80;99.90;;;;;;5030674;28;20485;-49
2023/10/22 01:38:27;;;;;;;4.38;1.88;;;9.80;99.90;;;;;;5030380;28;20018;-51
2023/10/22 01:40:53;;;;;;;2.88;1.63;;;9.80;99.90;;;;;;5030763;28;20030;-48
2023/10/22 01:43:19;;;;;;;3.13;1.60;;;9.80;99.90;;;;;;5030406;28;20025;-47
2023/10/22 01:45:45;;;;;;;3.47;1.40;;;9.90;99.90;;;;;;5030279;28;20091;-46
2023/10/22 01:48:10;;;;;;;3.28;1.60;;;9.90;99.90;;;;;;5030506;28;20116;-45
2023/10/22 01:50:36;;;;;;;4.60;1.50;;;9.90;99.90;;;;;;5062540;28;20018;-53
2023/10/22 01:53:02;;;;;;;4.85;1.92;;;9.90;99.90;;;;;;5030343;28;20502;-50
2023/10/22 01:55:27;;;;;;;3.92;1.55;;;9.90;99.90;;;;;;5030372;28;20467;-51
2023/10/22 01:57:53;;;;;;;3.63;1.52;;;9.90;99.90;;;;;;5030507;28;20415;-51
2023/10/22 02:00:19;;;;;;;3.00;1.58;;;9.90;99.90;;;;;;5030400;28;20083;-51
2023/10/22 02:02:44;;;;;;;4.60;1.60;;;10.00;99.90;;;;;;5030221;28;20452;-58
2023/10/22 02:05:10;;;;;;;3.05;1.60;;;10.00;99.90;;;;;;5028565;28;20492;-47
2023/10/22 02:07:39;;;;;;;2.15;1.35;;;10.00;99.90;;;;;;5030236;28;20037;-51
2023/10/22 02:10:06;;;;;;;2.47;1.50;;;10.00;99.90;;;;;;5030393;28;20088;-45
2023/10/22 02:12:32;;;;;;;3.20;1.90;;;10.00;99.90;;;;;;5030075;28;20049;-47
2023/10/22 02:14:57;;;;;;;2.92;1.50;;;10.00;99.90;;;;;;5030246;28;20037;-52
2023/10/22 02:17:23;;;;;;;4.60;1.60;;;10.10;99.90;;;;;;5030097;28;20056;-51
2023/10/22 02:19:48;;;;;;;2.97;1.70;;;10.10;99.90;;;;;;5030262;28;20030;-47
2023/10/22 02:22:16;;;;;;;2.42;1.20;;;10.00;99.90;;;;;;5030048;28;20026;-55
2023/10/22 02:24:42;;;;;;;3.05;1.40;;;10.00;99.90;;;;;;5030223;28;20491;-52
2023/10/22 02:27:08;;;;;;;3.83;1.35;;;10.00;99.90;;;;;;5030072;28;20038;-54
2023/10/22 02:29:34;;;;;;;3.85;1.40;;;10.00;99.90;;;;;;5030147;28;20033;-46
2023/10/22 02:31:59;;;;;;;2.95;1.40;;;10.00;99.90;;;;;;5029608;28;20032;-45
2023/10/22 02:34:26;;;;;;;2.55;1.40;;;10.00;99.90;;;;;;5030035;28;20088;-48
2023/10/22 02:36:51;;;;;;;2.28;1.40;;;10.00;99.90;;;;;;5030097;28;20107;-46
2023/10/22 02:39:19;;;;;;;2.63;1.50;;;10.00;99.90;;;;;;5029921;28;20022;-48
2023/10/22 02:41:45;;;;;;;3.40;1.65;;;10.00;99.90;;;;;;5030266;28;20027;-51
2023/10/22 02:44:10;;;;;;;3.15;1.45;;;10.00;99.90;;;;;;5029973;28;20381;-49
2023/10/22 02:46:36;;;;;;;4.10;1.92;;;10.00;99.90;;;;;;5029919;28;20026;-51
2023/10/22 02:49:02;;;;;;;5.57;1.60;;;9.90;99.90;;;;;;5029673;28;20107;-58
2023/10/22 02:51:28;;;;;;;2.67;1.50;;;9.90;99.90;;;;;;5029925;28;20072;-54
2023/10/22 02:53:54;;;;;;;2.92;1.60;;;10.00;99.90;;;;;;5032593;28;20436;-54
2023/10/22 02:56:20;;;;;;;3.33;1.30;;;10.00;99.90;;;;;;5033414;28;20030;-53
2023/10/22 02:58:45;;;;;;;3.15;1.40;;;9.90;99.90;;;;;;5033648;28;20029;-56
2023/10/22 03:01:12;;;;;;;2.53;1.30;;;10.00;99.90;;;;;;5033087;28;20025;-51
2023/10/22 03:03:38;;;;;;;2.13;1.33;;;9.90;99.90;;;;;;5033475;28;20030;-55
2023/10/22 03:06:09;;;;;;;5.43;1.88;;;9.90;99.90;;;;;;5033096;28;20026;-54
2023/10/22 03:08:36;;;;;;;2.28;1.40;;;9.90;99.90;;;;;;5033359;28;20045;-51
2023/10/22 03:11:03;;;;;;;2.33;1.35;;;9.90;99.90;;;;;;5033464;28;20032;-53
2023/10/22 03:13:28;;;;;;;2.97;1.40;;;9.90;99.90;;;;;;5033014;28;20064;-48
2023/10/22 03:15:54;;;;;;;3.88;1.80;;;9.90;99.90;;;;;;5032986;28;20068;-52
2023/10/22 03:18:20;;;;;;;2.38;1.33;;;10.00;99.90;;;;;;5032948;28;20803;-55
2023/10/22 03:20:46;;;;;;;2.70;1.40;;;9.90;99.90;;;;;;5033027;28;20030;-53
2023/10/22 03:23:12;;;;;;;3.03;1.30;;;9.90;99.90;;;;;;5033087;28;20079;-53
2023/10/22 03:25:39;;;;;;;3.13;1.75;;;9.90;99.90;;;;;;5033035;28;20057;-51
2023/10/22 03:28:06;;;;;;;2.33;1.13;;;9.80;99.90;;;;;;5033067;28;20079;-51
2023/10/22 03:30:33;;;;;;;2.60;1.30;;;9.80;99.90;;;;;;5032642;28;20025;-54
2023/10/22 03:32:58;;;;;;;4.72;1.85;;;9.80;99.90;;;;;;5032414;28;20058;-52
2023/10/22 03:35:24;;;;;;;2.58;1.50;;;9.70;99.90;;;;;;5032700;28;20067;-48
2023/10/22 03:37:50;;;;;;;3.72;1.40;;;9.60;99.90;;;;;;5033079;28;20040;-55
2023/10/22 03:40:16;;;;;;;6.15;1.70;;;9.60;99.90;;;;;;5032639;28;20029;-54
2023/10/22 03:42:41;;;;;;;2.35;1.30;;;9.50;99.90;;;;;;5032729;28;20353;-53
2023/10/22 03:45:07;;;;;;;2.47;1.50;;;9.50;99.90;;;;;;5032642;28;20096;-52
2023/10/22 03:47:33;;;;;;;2.45;1.48;;;9.40;99.90;;;;;;5032150;28;20034;-46
2023/10/22 03:49:58;;;;;;;2.47;1.33;;;9.30;99.90;;;;;;5032561;28;20507;-53
2023/10/22 03:52:25;;;;;;;2.55;1.55;;;9.30;99.90;;;;;;5032213;28;20105;-52
2023/10/22 03:54:50;;;;;;;2.83;1.70;;;9.30;99.90;;;;;;5032709;28;20095;-52
2023/10/22 03:57:16;;;;;;;3.65;1.60;;;9.20;99.90;;;;;;5032318;28;20034;-51
2023/10/22 03:59:41;;;;;;;2.28;1.70;;;9.20;99.90;;;;;;5032250;28;20029;-48
2023/10/22 04:02:07;;;;;;;3.22;1.50;;;9.20;99.90;;;;;;5032034;28;20029;-47
2023/10/22 04:04:32;;;;;;;4.35;1.48;;;9.20;99.90;;;;;;5031962;28;20082;-48
2023/10/22 04:06:58;;;;;;;3.50;1.42;;;9.10;99.90;;;;;;5032207;28;20041;-54
2023/10/22 04:09:23;;;;;;;2.13;1.23;;;9.10;99.90;;;;;;5032129;28;20021;-56
2023/10/22 04:11:49;;;;;;;3.28;1.40;;;9.10;99.90;;;;;;5032222;28;20036;-56
2023/10/22 04:14:16;;;;;;;2.53;1.60;;;9.10;99.90;;;;;;5031982;28;20511;-57
2023/10/22 04:16:41;;;;;;;4.78;1.40;;;9.00;99.90;;;;;;5031652;28;20025;-46
2023/10/22 04:19:07;;;;;;;2.40;1.45;;;9.00;99.90;;;;;;5032018;28;20017;-46
2023/10/22 04:21:32;;;;;;;4.15;1.45;;;8.90;99.90;;;;;;5030517;28;20025;-54
2023/10/22 04:23:58;;;;;;;1.40;1.00;;;8.90;99.90;;;;;;5031981;28;20029;-54
2023/10/22 04:26:24;;;;;;;2.10;1.30;;;8.90;99.90;;;;;;5031797;28;20029;-52
2023/10/22 04:28:49;;;;;;;2.45;1.25;;;8.90;99.90;;;;;;5031660;28;20108;-52
2023/10/22 04:31:15;;;;;;;2.08;1.13;;;8.80;99.90;;;;;;5031528;28;20025;-54
2023/10/22 04:33:40;;;;;;;3.90;1.38;;;8.70;99.90;;;;;;5031288;28;20404;-48
2023/10/22 04:36:15;;;;;;;2.53;1.38;;;8.60;99.90;;;;;;5031917;28;20021;-47
2023/10/22 04:38:41;;;;;;;2.83;1.70;;;8.60;99.90;;;;;;5031674;28;20048;-51
2023/10/22 04:41:11;;;;;;;2.05;1.40;;;8.60;99.90;;;;;;5031564;28;20587;-45
2023/10/22 04:43:37;;;;;;;2.78;1.20;;;8.50;99.90;;;;;;5031295;28;20068;-54
2023/10/22 04:46:02;;;;;;;2.67;1.30;;;8.50;99.90;;;;;;5031156;28;20037;-46
2023/10/22 04:48:28;;;;;;;3.97;1.30;;;8.50;99.90;;;;;;5031328;28;20025;-56
2023/10/22 04:50:55;;;;;;;6.00;1.70;;;8.40;99.90;;;;;;5031238;28;20024;-45
2023/10/22 04:53:21;;;;;;;5.45;1.20;;;8.40;99.90;;;;;;5031145;28;20091;-55
2023/10/22 04:55:59;;;;;;;3.38;1.27;;;8.40;99.90;;;;;;5031208;28;20096;-52
2023/10/22 04:58:27;;;;;;;3.33;1.48;;;8.20;99.90;;;;;;5031103;28;20112;-55
2023/10/22 05:00:53;;;;;;;3.87;0.93;;;8.30;99.90;;;;;;5031168;28;20028;-55
2023/10/22 05:03:18;;;;;;;3.55;1.42;;;8.30;99.90;;;;;;5030904;28;20025;-51
2023/10/22 05:05:44;;;;;;;4.57;1.38;;;8.20;99.90;;;;;;5030100;28;20394;-54
2023/10/22 05:08:10;;;;;;;2.45;1.38;;;8.20;99.90;;;;;;5031015;28;20064;-46
2023/10/22 05:10:39;;;;;;;2.22;1.20;;;8.20;99.90;;;;;;5030649;28;20025;-53
2023/10/22 05:13:06;;;;;;;2.38;1.40;;;8.10;99.90;;;;;;5030486;28;20037;-48
2023/10/22 05:15:31;;;;;;;5.18;1.40;;;8.10;99.90;;;;;;5030521;28;20374;-51
2023/10/22 05:17:57;;;;;;;5.88;1.50;;;8.10;99.90;;;;;;5031061;28;20047;-48
2023/10/22 05:20:32;;;;;;;2.03;1.02;;;8.10;99.90;;;;;;5029528;28;20021;-49
2023/10/22 05:22:58;;;;;;;2.13;1.23;;;8.00;99.90;;;;;;5030777;28;20428;-48
2023/10/22 05:25:24;;;;;;;5.60;1.27;;;8.00;99.90;;;;;;5030669;28;20467;-50
2023/10/22 05:27:49;;;;;;;5.20;1.27;;;8.00;99.90;;;;;;5030845;28;20036;-54
2023/10/22 05:30:15;;;;;;;3.58;1.60;;;7.90;99.90;;;;;;5030621;28;20454;-50
2023/10/22 05:32:41;;;;;;;2.22;1.25;;;7.80;99.90;;;;;;5030669;28;20111;-52
2023/10/22 05:35:07;;;;;;;3.30;1.50;;;7.80;99.90;;;;;;5030640;28;20501;-56
2023/10/22 05:37:33;;;;;;;5.10;1.15;;;7.80;99.90;;;;;;5030606;28;20435;-55
2023/10/22 05:39:59;;;;;;;2.95;1.27;;;7.70;99.90;;;;;;5030631;28;20072;-58
2023/10/22 05:42:25;;;;;;;2.97;1.05;;;7.70;99.90;;;;;;5030512;28;20033;-56
2023/10/22 05:44:50;;;;;;;2.05;0.80;;;7.70;99.90;;;;;;5030628;28;20084;-56
2023/10/22 05:47:16;;;;;;;2.50;1.00;;;7.60;99.90;;;;;;5030372;28;20389;-50
2023/10/22 05:49:43;;;;;;;1.33;1.00;;;7.60;99.90;;;;;;5030616;28;20029;-56
2023/10/22 05:52:08;;;;;;;1.85;1.10;;;7.60;99.90;;;;;;5030391;28;20021;-51
2023/10/22 05:54:34;;;;;;;2.00;1.30;;;7.60;99.90;;;;;;5030440;28;20092;-54
2023/10/22 05:57:00;;;;;;;3.08;1.23;;;7.60;99.90;;;;;;5030480;28;20029;-57
2023/10/22 05:59:26;;;;;;;2.67;1.10;;;7.60;99.90;;;;;;5030620;28;20041;-55
2023/10/22 06:01:51;;;;;;;1.33;0.88;;;7.70;99.90;;;;;;5030520;28;20376;-48
2023/10/22 06:04:17;;;;;;;1.48;0.90;;;7.70;99.90;;;;;;5030379;28;20067;-47
2023/10/22 06:06:43;;;;;;;1.60;1.00;;;7.60;99.90;;;;;;5030426;28;20026;-48
2023/10/22 06:09:10;;;;;;;2.05;0.90;;;7.60;99.90;;;;;;5030230;28;20473;-46
2023/10/22 06:11:35;;;;;;;1.70;0.90;;;7.60;99.90;;;;;;5030450;28;20032;-47
2023/10/22 06:14:02;;;;;;;1.50;1.00;;;7.60;99.90;;;;;;5030078;28;20038;-50
2023/10/22 06:16:30;;;;;;;1.83;1.13;;;7.60;99.90;;;;;;5030182;28;20411;-56
2023/10/22 06:18:57;;;;;;;1.73;0.70;;;7.60;99.90;;;;;;5030391;28;20026;-56
2023/10/22 06:21:22;;;;;;;2.08;1.08;;;7.60;99.90;;;;;;5030288;28;20025;-57
2023/10/22 06:23:49;;;;;;;1.50;0.80;;;7.60;99.90;;;;;;5030124;28;20045;-54
2023/10/22 06:26:15;;;;;;;2.25;1.05;;;7.50;99.90;;;;;;5030392;28;20036;-57
2023/10/22 06:28:41;;;;;;;1.27;0.85;;;7.50;99.90;;;;;;5032685;28;20025;-49
2023/10/22 06:31:12;;;;;;;1.63;0.80;;;7.50;99.90;;;;;;5034132;28;20563;-51
2023/10/22 06:33:39;;;;;;;1.63;0.95;;;7.40;99.90;;;;;;5033614;28;20068;-52
2023/10/22 06:36:16;;;;;;;3.42;1.15;;;7.40;99.90;;;;;;5033978;28;20104;-47
2023/10/22 06:38:43;;;;;;;1.90;1.08;;;7.40;99.90;;;;;;5033810;28;20546;-54
2023/10/22 06:41:26;;;;;;;2.75;0.95;;;7.40;99.90;;;;;;5033826;28;20033;-53
2023/10/22 06:43:53;;;;;;;1.70;0.90;;;7.40;99.90;;;;;;5033661;28;20029;-56
2023/10/22 06:46:19;;;;;;;1.15;0.93;;;7.30;99.90;;;;;;5033837;28;20072;-51
2023/10/22 06:48:45;;;;;;;0.95;0.70;;;7.30;99.90;;;;;;5033386;28;20056;-47
2023/10/22 06:51:18;;;;;;;0.77;0.70;;;7.20;99.90;;;;;;5033462;28;20100;-53
2023/10/22 06:53:46;;;;;;;1.35;1.00;;;7.20;99.90;;;;;;5033309;28;20546;-47
2023/10/22 06:56:12;;;;;;;1.05;0.80;;;7.10;99.90;;;;;;5033522;28;20109;-47
2023/10/22 06:58:38;;;;;;;3.90;1.00;;;7.20;99.90;;;;;;5033564;28;20034;-54
2023/10/22 07:01:11;;;;;;;1.75;0.77;;;7.20;99.90;;;;;;5032957;28;20025;-49
2023/10/22 07:03:42;;;;;;;2.45;1.00;;;7.20;99.90;;;;;;5033210;28;20037;-52
2023/10/22 07:06:07;;;;;;;4.40;1.05;;;7.10;99.90;;;;;;5033132;28;20029;-50
2023/10/22 07:08:33;;;;;;;1.35;1.00;;;7.20;99.90;;;;;;5032943;28;20026;-50
2023/10/22 07:11:00;;;;;;;1.55;0.85;;;7.20;99.90;;;;;;5032936;28;20028;-48
2023/10/22 07:13:25;;;;;;;1.55;0.90;;;7.20;99.90;;;;;;5032916;28;20120;-50
2023/10/22 07:15:52;;;;;;;1.52;0.70;;;7.20;99.90;;;;;;5033240;28;20100;-47
2023/10/22 07:18:18;;;;;;;0.88;0.60;;;7.10;99.90;;;;;;5033033;28;20460;-49
2023/10/22 07:20:43;;;;;;;1.58;1.00;;;7.20;99.90;;;;;;5033337;28;20026;-54
2023/10/22 07:23:09;;;;;;;2.58;0.73;;;7.20;99.90;;;;;;5032342;28;20393;-48
2023/10/22 07:25:36;;;;;;;1.15;0.68;;;7.20;99.90;;;;;;5032903;28;20060;-49
2023/10/22 07:28:02;;;;;;;2.72;0.60;;;7.20;99.90;;;;;;5032795;28;20143;-48
2023/10/22 07:30:29;;;;;;;1.98;0.80;;;7.20;99.90;;;;;;5032632;28;20599;-48
2023/10/22 07:32:55;;;;;;;1.88;0.88;;;7.20;99.90;;;;;;5032711;28;20106;-46
2023/10/22 07:35:21;;;;;;;0.73;0.55;;;7.30;99.90;;;;;;5032237;28;20104;-51
2023/10/22 07:37:47;;;;;;;1.80;1.00;;;7.30;99.90;;;;;;5032683;28;20029;-52
2023/10/22 07:40:14;;;;;;;2.03;1.00;;;7.30;99.90;;;;;;5032011;28;20022;-50
2023/10/22 07:42:40;;;;;;;1.15;0.70;;;7.40;99.90;;;;;;5032170;28;20017;-52
2023/10/22 07:45:07;;;;;;;0.82;0.70;;;7.50;99.90;;;;;;5032239;28;20080;-52
2023/10/22 07:47:32;;;;;;;1.95;0.60;;;7.50;99.90;;;;;;5032130;28;20569;-50
2023/10/22 07:49:58;;;;;;;0.60;0.50;;;7.60;99.90;;;;;;5032318;28;20033;-52
2023/10/22 07:52:23;;;;;;;1.20;0.90;;;7.70;99.90;;;;;;5032161;28;20025;-51
2023/10/22 07:54:52;;;;;;;1.40;0.90;;;7.80;99.90;;;;;;5032465;28;20044;-52
2023/10/22 07:57:18;;;;;;;1.97;1.07;;;7.80;99.90;;;;;;5032360;28;20144;-55
2023/10/22 07:59:44;;;;;;;1.75;1.00;;;7.90;99.90;;;;;;5024164;28;20431;-47
2023/10/22 08:02:10;;;;;;;3.22;1.05;;;8.00;99.90;;;;;;5032278;28;20025;-50
2023/10/22 08:04:37;;;;;;;1.77;1.20;;;8.00;99.90;;;;;;5031931;28;20013;-46
2023/10/22 08:07:03;;;;;;;3.08;1.20;;;8.10;99.90;;;;;;5032164;28;20059;-47
2023/10/22 08:09:29;;;;;;;2.20;1.13;;;8.20;99.90;;;;;;5031383;28;20037;-53
2023/10/22 08:11:55;;;;;;;1.73;1.10;;;8.30;99.90;;;;;;5031655;28;20591;-47
2023/10/22 08:14:21;;;;;;;1.55;1.10;;;8.40;99.90;;;;;;5031827;28;20128;-53
2023/10/22 08:16:46;;;;;;;2.17;1.20;;;8.50;99.90;;;;;;5031262;28;20372;-48
2023/10/22 08:19:12;;;;;;;2.33;1.20;;;8.70;99.90;;;;;;5031402;28;20388;-48
2023/10/22 08:21:38;;;;;;;3.30;1.15;;;8.80;99.90;;;;;;5031705;28;20017;-48
2023/10/22 08:24:04;;;;;;;2.63;1.25;;;9.00;99.90;;;;;;5031546;28;20033;-48
2023/10/22 08:26:29;;;;;;;2.80;1.38;;;9.20;99.90;;;;;;5031430;28;20553;-58
2023/10/22 08:28:55;;;;;;;2.00;1.30;;;9.50;99.90;;;;;;5030942;28;20120;-48
2023/10/22 08:31:20;;;;;;;1.88;1.10;;;10.00;99.90;;;;;;5026035;28;20025;-51
2023/10/22 08:33:46;;;;;;;2.97;1.30;;;10.50;99.90;;;;;;5031058;28;20049;-55
2023/10/22 08:36:12;;;;;;;2.25;1.42;;;11.10;99.90;;;;;;5031256;28;20029;-48
2023/10/22 08:38:37;;;;;;;1.75;1.08;;;12.00;99.90;;;;;;5031203;28;20026;-56
2023/10/22 08:41:06;;;;;;;4.00;1.77;;;12.80;99.90;;;;;;5031114;28;20472;-50
2023/10/22 08:43:32;;;;;;;5.05;2.42;;;13.70;99.90;;;;;;5030690;28;20048;-55
2023/10/22 08:45:58;;;;;;;2.47;1.50;;;14.30;99.90;;;;;;5030085;28;20013;-49
2023/10/22 08:48:25;;;;;;;1.38;0.95;;;15.10;99.90;;;;;;5028623;28;20028;-50
2023/10/22 08:50:52;;;;;;;1.90;1.08;;;15.90;99.90;;;;;;5027584;28;20024;-50
2023/10/22 08:53:18;;;;;;;2.80;1.20;;;16.70;99.90;;;;;;5028683;28;20667;-49
2023/10/22 08:55:45;;;;;;;3.03;1.42;;;16.70;99.90;;;;;;5028447;28;20105;-51
2023/10/22 08:58:14;;;;;;;1.05;0.70;;;16.80;99.90;;;;;;5028487;28;20416;-49
2023/10/22 09:00:46;;;;;;;1.42;1.00;;;17.40;99.90;;;;;;5028850;28;20036;-47
2023/10/22 09:03:15;;;;;;;1.85;1.02;;;17.50;99.90;;;;;;5030770;28;20064;-54
2023/10/22 09:05:41;;;;;;;1.17;0.70;;;18.00;99.90;;;;;;5030934;28;20030;-53
2023/10/22 09:08:07;;;;;;;1.35;0.93;;;18.10;99.90;;;;;;5031143;28;20075;-47
2023/10/22 09:10:34;;;;;;;2.00;0.90;;;17.30;99.90;;;;;;5030911;28;20025;-58
2023/10/22 09:13:13;;;;;;;2.10;1.00;;;17.00;99.90;;;;;;5030551;28;20577;-50
2023/10/22 09:15:41;;;;;;;1.15;0.75;;;17.10;99.90;;;;;;5030872;28;20537;-47
2023/10/22 09:18:07;;;;;;;1.52;0.90;;;17.60;99.90;;;;;;5030851;28;20496;-49
2023/10/22 09:20:36;;;;;;;2.38;1.20;;;18.50;99.90;;;;;;5030875;28;20071;-48
2023/10/22 09:23:14;;;;;;;1.80;1.08;;;18.90;99.90;;;;;;5030758;28;20071;-50
2023/10/22 09:25:40;;;;;;;5.10;1.00;;;19.90;99.90;;;;;;5018261;28;20033;-57
2023/10/22 09:28:20;;;;;;;1.60;0.82;;;20.30;99.90;;;;;;5031006;28;20018;-52
2023/10/22 09:30:57;;;;;;;6.20;1.30;;;20.60;99.90;;;;;;5030906;28;20061;-49
2023/10/22 09:33:37;;;;;;;4.03;0.60;;;20.90;99.90;;;;;;5030161;28;20712;-52
2023/10/22 09:36:04;;;;;;;1.10;0.70;;;21.50;99.90;;;;;;5030960;28;20026;-50
2023/10/22 09:38:42;;;;;;;2.72;0.93;;;22.20;99.90;;;;;;5030544;28;20447;-51
2023/10/22 09:41:11;;;;;;;2.70;0.77;;;22.70;99.90;;;;;;5030638;28;20426;-48
2023/10/22 09:43:37;;;;;;;2.85;0.80;;;22.90;99.90;;;;;;5030390;28;20026;-48
2023/10/22 09:46:06;;;;;;;2.25;0.73;;;22.40;99.90;;;;;;5030654;28;20076;-52
2023/10/22 09:48:34;;;;;;;2.03;0.50;;;22.90;99.90;;;;;;5030671;28;20013;-49
2023/10/22 09:51:02;;;;;;;1.20;0.57;;;23.60;99.90;;;;;;5030514;28;20365;-49
2023/10/22 09:53:30;;;;;;;1.55;0.77;;;24.60;99.90;;;;;;5030498;28;20029;-50
2023/10/22 09:55:56;;;;;;;1.02;0.57;;;25.00;98.00;;;;;;5030286;28;20476;-50
2023/10/22 09:58:31;;;;;;;1.77;0.60;;;24.70;98.50;;;;;;5030505;28;20034;-57
2023/10/22 10:00:58;;;;;;;2.65;0.50;;;24.30;96.70;;;;;;5030456;28;20021;-47
2023/10/22 10:03:26;;;;;;;1.42;0.70;;;23.50;99.90;;;;;;5034518;28;20136;-51
2023/10/22 10:05:53;;;;;;;0.98;0.60;;;22.60;99.60;;;;;;5034495;28;20048;-50
2023/10/22 10:08:19;;;;;;;2.35;0.60;;;22.10;99.30;;;;;;5034600;28;20026;-55
2023/10/22 10:10:45;;;;;;;2.15;0.82;;;22.40;99.90;;;;;;5034301;28;20021;-56
2023/10/22 10:13:12;;;;;;;4.93;0.70;;;22.40;99.50;;;;;;5034181;28;20083;-51
2023/10/22 10:15:38;;;;;;;1.70;0.75;;;23.00;97.60;;;;;;5034503;28;20033;-53
2023/10/22 10:18:07;;;;;;;1.60;0.55;;;23.20;99.00;;;;;;5034099;28;20051;-56
2023/10/22 10:20:35;;;;;;;3.25;0.70;;;24.10;99.70;;;;;;5034216;28;20457;-55
2023/10/22 10:23:08;;;;;;;1.50;0.50;;;25.10;98.10;;;;;;5034210;28;20026;-56
2023/10/22 10:25:35;;;;;;;0.80;0.60;;;25.70;97.90;;;;;;5020549;28;20037;-50
2023/10/22 10:28:08;;;;;;;2.08;0.57;;;25.90;96.40;;;;;;5034073;28;20511;-52
2023/10/22 10:30:35;;;;;;;1.77;0.77;;;26.10;95.10;;;;;;5033952;28;20454;-52
2023/10/22 10:33:01;;;;;;;1.10;0.60;;;26.20;95.80;;;;;;5033984;28;20045;-51
2023/10/22 10:35:28;;;;;;;1.48;0.60;;;26.20;93.10;;;;;;5033779;28;20021;-50
2023/10/22 10:38:15;;;;;;;2.15;1.10;;;25.80;92.90;;;;;;5033849;28;20035;-54
2023/10/22 10:40:53;;;;;;;1.60;0.60;;;25.10;94.30;;;;;;5033891;28;20022;-54
2023/10/22 10:43:19;;;;;;;1.53;0.63;;;25.50;95.40;;;;;;5033823;28;20033;-50
2023/10/22 10:46:23;;;;;;;1.65;0.85;;;25.10;94.00;;;;;;5033722;28;20100;-56
2023/10/22 10:48:48;;;;;;;2.88;0.75;;;25.30;94.90;;;;;;5033618;28;20033;-54
2023/10/22 10:51:17;;;;;;;1.45;0.70;;;25.10;95.20;;;;;;5033819;28;20032;-53
2023/10/22 10:54:01;;;;;;;1.80;0.83;;;25.70;93.50;;;;;;5033383;28;20507;-49
2023/10/22 10:56:55;;;;;;;1.00;0.77;;;25.80;93.10;;;;;;5022119;28;20040;-57
2023/10/22 10:59:32;;;;;;;2.45;0.95;;;26.10;91.30;;;;;;5033613;28;20025;-53
2023/10/22 11:02:10;;;;;;;2.47;0.90;;;26.60;93.50;;;;;;5033675;28;20018;-49
2023/10/22 11:04:37;;;;;;;3.08;0.88;;;26.70;92.70;;;;;;5033261;28;20476;-55
2023/10/22 11:07:04;;;;;;;1.90;0.80;;;27.00;91.50;;;;;;5033374;28;20025;-50
2023/10/22 11:09:37;;;;;;;0.98;0.70;;;27.30;90.20;;;;;;5033156;28;20056;-49
2023/10/22 11:12:04;;;;;;;3.10;0.98;;;27.00;89.20;;;;;;5033687;28;20025;-46
2023/10/22 11:14:34;;;;;;;1.88;1.00;;;26.60;90.00;;;;;;5032397;28;20091;-53
2023/10/22 11:17:00;;;;;;;2.05;0.90;;;26.20;91.40;;;;;;5032895;28;20029;-46
2023/10/22 11:19:28;;;;;;;2.28;0.90;;;26.00;91.60;;;;;;5033132;28;20485;-49
2023/10/22 11:21:56;;;;;;;1.33;0.63;;;25.70;90.00;;;;;;5033028;28;20053;-55
2023/10/22 11:24:29;;;;;;;2.10;0.68;;;25.80;91.40;;;;;;5033280;28;20030;-55
2023/10/22 11:26:55;;;;;;;1.83;0.60;;;25.00;89.30;;;;;;5033026;28;20026;-57
2023/10/22 11:29:21;;;;;;;1.30;0.55;;;24.50;90.00;;;;;;5033173;28;20113;-55
2023/10/22 11:31:55;;;;;;;1.63;0.50;;;24.50;90.60;;;;;;5032919;28;20061;-57
2023/10/22 11:34:21;;;;;;;1.63;0.28;;;24.00;92.40;;;;;;5031379;28;20412;-56
2023/10/22 11:36:47;;;;;;;1.33;0.43;;;23.90;91.10;;;;;;5032927;28;20021;-52
2023/10/22 11:39:16;;;;;;;1.08;0.60;;;24.30;91.80;;;;;;5030394;28;20091;-55
2023/10/22 11:41:42;;;;;;;0.52;0.30;;;24.70;90.00;;;;;;5031811;28;20029;-59
2023/10/22 11:44:08;;;;;;;1.20;0.60;;;24.50;90.70;;;;;;5031268;28;20113;-56
2023/10/22 11:46:41;;;;;;;0.63;0.47;;;24.20;89.10;;;;;;5032437;28;20029;-52
2023/10/22 11:49:07;;;;;;;2.17;0.60;;;24.20;90.90;;;;;;5032202;28;20088;-56
2023/10/22 11:51:45;;;;;;;0.45;0.40;;;24.00;91.50;;;;;;5031454;28;20022;-54
2023/10/22 11:54:10;;;;;;;1.27;0.30;;;23.70;90.30;;;;;;5029485;28;20064;-51
2023/10/22 11:56:36;;;;;;;1.90;0.63;;;23.70;90.50;;;;;;5025534;28;20290;-53
2023/10/22 11:59:02;;;;;;;1.65;0.60;;;24.10;89.70;;;;;;5031498;28;20025;-56
2023/10/22 12:01:28;;;;;;;0.85;0.40;;;24.40;90.90;;;;;;5032605;28;20029;-55
2023/10/22 12:03:53;;;;;;;2.65;0.57;;;24.70;91.10;;;;;;5040503;28;20022;-51
2023/10/22 12:06:19;;;;;;;0.52;0.40;;;25.10;90.80;;;;;;5031988;28;20021;-49
2023/10/22 12:08:45;;;;;;;1.55;0.45;;;25.30;90.30;;;;;;5037468;28;20075;-48
2023/10/22 12:11:10;;;;;;;1.77;0.60;;;25.20;89.60;;;;;;5033519;28;20218;-53
2023/10/22 12:13:36;;;;;;;0.75;0.40;;;25.80;87.60;;;;;;5031663;28;20033;-49
2023/10/22 12:16:02;;;;;;;1.10;0.50;;;26.10;88.00;;;;;;5031150;28;20025;-55
2023/10/22 12:18:28;;;;;;;1.02;0.60;;;25.90;89.20;;;;;;5036696;28;20033;-52
2023/10/22 12:20:55;;;;;;;2.47;0.60;;;25.90;87.60;;;;;;5040825;28;20052;-53
2023/10/22 12:23:21;;;;;;;3.83;0.60;;;25.70;87.40;;;;;;5039389;28;20049;-53
2023/10/22 12:25:46;;;;;;;1.92;0.60;;;25.50;88.10;;;;;;5024722;28;20056;-50
2023/10/22 12:28:12;;;;;;;0.93;0.60;;;25.00;87.00;;;;;;5022714;28;20025;-48
2023/10/22 12:30:39;;;;;;;0.35;0.30;;;24.10;86.30;;;;;;5025044;28;20113;-48
2023/10/22 12:33:05;;;;;;;2.05;0.50;;;23.90;90.80;;;;;;5026384;28;20511;-57
2023/10/22 12:35:30;;;;;;;2.00;0.75;;;24.10;90.10;;;;;;5032454;28;20029;-53
2023/10/22 12:37:56;;;;;;;2.13;0.60;;;24.10;88.50;;;;;;5018972;28;20063;-48
2023/10/22 12:40:21;;;;;;;0.73;0.40;;;23.50;87.80;;;;;;5027955;28;20098;-50
2023/10/22 12:42:47;;;;;;;2.05;0.73;;;22.80;90.00;;;;;;5037263;28;20033;-49
2023/10/22 12:45:13;;;;;;;1.13;0.50;;;22.40;90.70;;;;;;5043167;28;20385;-49
2023/10/22 12:47:39;;;;;;;1.60;0.40;;;21.90;91.10;;;;;;5039299;28;20025;-53
2023/10/22 12:50:05;;;;;;;0.75;0.35;;;21.20;91.00;;;;;;5026927;28;20433;-55
2023/10/22 12:52:31;;;;;;;1.58;0.40;;;20.80;91.30;;;;;;5025188;28;20044;-51